• Join FlightAware (Why Join?)
  • Login
  • US Flag 
11:41PM EDT


 

Airport Tracker/Info


-or-


 

Live Flight TrackerFlight Track Log ✈ EJA846 ✈ 08-Jun-2013 ✈ KCGF - KPTN

Flight Track Log - Related Links

Times and Time Zones

All times are in EDT time to prevent confusion due to time zone crossing. See the EJA846 flight status page for this flight to view local times or setup timezone preferences in your user account.

Time Position Orientation Groundspeed Altitude Reporting Facility
EDT Latitude Longitude Course Direction KTS MPH feet Rate Location/Type
04:22PM 41.5539 -81.5044 194° South 171 197 1,600  Level Cleveland Center
04:23PM 41.4994 -81.5231 194° South 250 288 4,700 2,820 Climbing Cleveland Center
04:24PM 41.4472 -81.5444 197° South 223 257 7,700 3,240 Climbing Cleveland Center
04:25PM 41.3800 -81.6014 212° Southwest 238 274 11,300 2,820 Climbing Cleveland Center
04:26PM 41.3150 -81.6642 216° Southwest 269 310 13,300 2,040 Climbing Cleveland Center
04:27PM 41.2414 -81.7319 215° Southwest 305 351 15,400 2,520 Climbing Cleveland Center
04:28PM 41.1717 -81.7969 215° Southwest 316 364 18,400 2,580 Climbing Cleveland Center
04:29PM 41.1064 -81.8589 216° Southwest 323 372 20,700 1,800 Climbing Cleveland Center
04:30PM 41.0306 -81.9292 215° Southwest 330 380 22,100 1,500 Climbing Cleveland Center
04:31PM 40.9528 -81.9989 214° Southwest 343 395 23,700 1,560 Climbing Cleveland Center
04:32PM 40.8683 -82.0686 212° Southwest 349 402 25,300 1,500 Climbing Cleveland Center
04:34PM 40.7378 -82.1642 209° Southwest 366 421 27,400 1,380 Climbing Indianapolis Center
04:35PM 40.6464 -82.2308 209° Southwest 371 427 28,900 1,260 Climbing Indianapolis Center
04:36PM 40.5525 -82.2986 209° Southwest 381 438 30,100 1,080 Climbing Indianapolis Center
04:37PM 40.4547 -82.3689 209° Southwest 394 453 31,200 1,080 Climbing Indianapolis Center
04:38PM 40.3558 -82.4403 209° Southwest 401 461 32,400 1,080 Climbing Indianapolis Center
04:39PM 40.2544 -82.5144 209° Southwest 411 473 33,500 1,080 Climbing Indianapolis Center
04:40PM 40.1472 -82.5933 209° Southwest 412 474 34,700 1,080 Climbing Indianapolis Center
04:41PM 40.0564 -82.6814 217° Southwest 404 465 35,800 1,020 Climbing Indianapolis Center
04:42PM 39.9669 -82.7686 217° Southwest 398 458 36,900 1,020 Climbing Indianapolis Center
04:43PM 39.8786 -82.8544 217° Southwest 393 452 38,000 1,020 Climbing Indianapolis Center
04:44PM 39.7944 -82.9383 217° Southwest 379 436 39,100 960 Climbing Indianapolis Center
04:45PM 39.7122 -83.0167 216° Southwest 363 418 40,000 420 Climbing Indianapolis Center
04:46PM 39.6294 -83.0978 217° Southwest 366 421 40,000  Level Indianapolis Center
04:47PM 39.5467 -83.1775 217° Southwest 364 419 40,000  Level Indianapolis Center
04:48PM 39.4519 -83.2697 217° Southwest 361 415 40,000  Level Indianapolis Center
04:49PM 39.3706 -83.3481 217° Southwest 361 415 40,000  Level Indianapolis Center
04:50PM 39.2908 -83.4253 217° Southwest 356 410 40,000  Level Indianapolis Center
04:51PM 39.2086 -83.5031 216° Southwest 360 414 40,000  Level Indianapolis Center
04:52PM 39.1289 -83.5808 217° Southwest 357 411 40,000  Level Indianapolis Center
04:53PM 39.0483 -83.6578 217° Southwest 357 411 40,000  Level Indianapolis Center
04:54PM 38.9667 -83.7347 216° Southwest 359 413 40,000  Level Indianapolis Center
04:55PM 38.8858 -83.8108 216° Southwest 357 411 40,000  Level Indianapolis Center
04:56PM 38.8047 -83.8878 216° Southwest 358 412 40,000  Level Indianapolis Center
04:57PM 38.7247 -83.9628 216° Southwest 355 409 40,000  Level Indianapolis Center
04:59PM 38.6364 -84.0456 216° Southwest 357 411 40,000  Level Indianapolis Center
05:00PM 38.5564 -84.1200 216° Southwest 356 410 40,000  Level Indianapolis Center
05:01PM 38.4769 -84.1944 216° Southwest 355 409 40,000  Level Indianapolis Center
05:02PM 38.3969 -84.2703 217° Southwest 358 412 40,000  Level Indianapolis Center
05:03PM 38.3169 -84.3431 216° Southwest 354 407 40,000  Level Indianapolis Center
05:04PM 38.2250 -84.4292 216° Southwest 354 407 40,000  Level Indianapolis Center
05:05PM 38.1456 -84.5006 215° Southwest 351 404 40,000  Level Indianapolis Center
05:06PM 38.0700 -84.5719 217° Southwest 343 395 40,000  Level Indianapolis Center
05:07PM 37.9906 -84.6433 215° Southwest 346 398 40,000  Level Indianapolis Center
05:08PM 37.9117 -84.7167 216° Southwest 349 402 40,000  Level Indianapolis Center
05:09PM 37.8314 -84.7889 215° Southwest 353 406 40,000  Level Indianapolis Center
05:10PM 37.7525 -84.8594 215° Southwest 350 403 40,000  Level Indianapolis Center
05:11PM 37.6625 -84.9428 216° Southwest 345 397 40,000  Level Indianapolis Center
05:12PM 37.5839 -85.0131 215° Southwest 346 398 40,000  Level Indianapolis Center
05:13PM 37.5044 -85.0844 215° Southwest 349 402 40,000  Level Indianapolis Center
05:14PM 37.4261 -85.1556 216° Southwest 347 399 40,000  Level Indianapolis Center
05:15PM 37.3492 -85.2256 216° Southwest 343 395 40,000  Level Indianapolis Center
05:16PM 37.2706 -85.2953 215° Southwest 346 398 40,000  Level Indianapolis Center
05:17PM 37.1931 -85.3644 215° Southwest 341 392 40,000  Level Indianapolis Center
05:18PM 37.1031 -85.4444 215° Southwest 341 392 40,000  Level Indianapolis Center
05:19PM 37.0314 -85.5067 215° Southwest 338 389 40,000  Level Indianapolis Center
05:20PM 36.9542 -85.5756 215° Southwest 339 390 40,000  Level Indianapolis Center
05:21PM 36.8781 -85.6436 216° Southwest 334 384 40,000  Level Indianapolis Center
05:22PM 36.8008 -85.7108 215° Southwest 334 384 40,000  Level Indianapolis Center
05:23PM 36.7172 -85.7853 216° Southwest 332 382 40,000  Level Indianapolis Center
05:24PM 36.6481 -85.8444 214° Southwest 331 381 40,000  Level Indianapolis Center
05:25PM 36.5703 -85.9111 215° Southwest 334 384 40,000  Level Indianapolis Center
05:26PM 36.4822 -85.9883 215° Southwest 329 379 40,000  Level Indianapolis Center
05:27PM 36.4078 -86.0531 215° Southwest 324 373 40,000  Level Indianapolis Center
05:28PM 36.3325 -86.1194 215° Southwest 326 375 40,000  Level Indianapolis Center
05:29PM 36.2558 -86.1839 214° Southwest 329 379 40,000  Level Indianapolis Center
05:30PM 36.1808 -86.2492 215° Southwest 326 375 40,000  Level Indianapolis Center
05:31PM 36.0908 -86.3244 214° Southwest 332 382 40,000  Level Memphis Center
05:32PM 36.0158 -86.3872 214° Southwest 332 382 40,000  Level Memphis Center
05:33PM 35.9489 -86.4467 216° Southwest 332 382 40,000  Level Memphis Center
05:34PM 35.8758 -86.5092 215° Southwest 332 382 40,000  Level Memphis Center
05:35PM 35.8006 -86.5742 215° Southwest 326 375 40,000  Level Memphis Center
05:37PM 35.6606 -86.6944 215° Southwest 322 371 40,000  Level Atlanta Center
05:38PM 35.6236 -86.7278 216° Southwest 317 365 40,000  Level Memphis Center
05:39PM 35.5483 -86.7897 214° Southwest 322 371 40,000  Level Memphis Center
05:40PM 35.4731 -86.8542 215° Southwest 332 382 40,000  Level Memphis Center
05:41PM 35.3997 -86.9183 216° Southwest 332 382 40,000  Level Memphis Center
05:42PM 35.3283 -86.9772 214° Southwest 324 373 40,000  Level Memphis Center
05:43PM 35.2528 -87.0389 214° Southwest 324 373 40,000  Level Memphis Center
05:44PM 35.1775 -87.1028 215° Southwest 329 379 40,000  Level Memphis Center
05:45PM 35.0917 -87.1772 215° Southwest 338 389 40,000  Level Memphis Center
05:46PM 35.0161 -87.2383 214° Southwest 343 395 40,000  Level Memphis Center
05:47PM 34.9383 -87.3047 215° Southwest 338 389 40,000  Level Memphis Center
05:48PM 34.8647 -87.3631 213° Southwest 333 383 40,000  Level Memphis Center
05:49PM 34.7911 -87.4264 215° Southwest 333 383 40,000  Level Memphis Center
05:50PM 34.7133 -87.4897 214° Southwest 327 376 40,000  Level Memphis Center
05:51PM 34.6394 -87.5450 212° Southwest 332 382 40,000  Level Memphis Center
05:52PM 34.5636 -87.6056 213° Southwest 326 375 40,000  Level Memphis Center
05:53PM 34.4878 -87.6711 215° Southwest 326 375 40,000  Level Memphis Center
05:54PM 34.4119 -87.7314 213° Southwest 326 375 40,000  Level Memphis Center
05:55PM 34.3444 -87.7889 215° Southwest 326 375 40,000  Level Memphis Center
05:56PM 34.2683 -87.8489 213° Southwest 331 381 40,000  Level Memphis Center
05:57PM 34.1925 -87.9139 215° Southwest 331 381 40,000  Level Memphis Center
05:58PM 34.1122 -87.9739 212° Southwest 331 381 40,000  Level Memphis Center
05:59PM 34.0361 -88.0361 214° Southwest 331 381 40,000  Level Memphis Center
06:00PM 33.9581 -88.0983 213° Southwest 336 387 40,000  Level Memphis Center
06:01PM 33.8717 -88.1681 214° Southwest 341 392 40,000  Level Memphis Center
06:02PM 33.7933 -88.2350 215° Southwest 349 402 40,000  Level Memphis Center
06:03PM 33.7131 -88.2994 214° Southwest 349 402 40,000  Level Memphis Center
06:04PM 33.6350 -88.3636 214° Southwest 349 402 40,000  Level Memphis Center
06:05PM 33.5544 -88.4253 213° Southwest 349 402 40,000  Level Memphis Center
06:06PM 33.4886 -88.4842 217° Southwest 342 394 40,000  Level Memphis Center
06:07PM 33.4103 -88.5456 213° Southwest 342 394 40,000  Level Memphis Center
06:08PM 33.3297 -88.6069 212° Southwest 347 399 40,000  Level Memphis Center
06:09PM 33.2511 -88.6681 213° Southwest 342 394 40,000  Level Memphis Center
06:10PM 33.1622 -88.7392 214° Southwest 342 394 40,000  Level Memphis Center
06:11PM 33.0839 -88.8003 213° Southwest 342 394 40,000  Level Memphis Center
06:12PM 33.0053 -88.8636 214° Southwest 342 394 40,000  Level Memphis Center
06:13PM 32.9244 -88.9267 213° Southwest 347 399 40,000  Level Memphis Center
06:14PM 32.8458 -88.9875 213° Southwest 347 399 40,000  Level Memphis Center
06:15PM 32.7653 -89.0478 212° Southwest 347 399 40,000  Level Memphis Center
06:16PM 32.6864 -89.1108 214° Southwest 342 394 40,000  Level Memphis Center
06:17PM 32.6058 -89.1736 213° Southwest 342 394 40,000  Level Memphis Center
06:18PM 32.5269 -89.2336 213° Southwest 342 394 40,000  Level Memphis Center
06:19PM 32.4461 -89.2964 213° Southwest 342 394 40,000  Level Memphis Center
06:20PM 32.3653 -89.3589 213° Southwest 342 394 40,000  Level Memphis Center
06:21PM 32.2864 -89.4211 214° Southwest 342 394 40,000  Level Memphis Center
06:22PM 32.2033 -89.4833 212° Southwest 347 399 40,000  Level Memphis Center
06:23PM 32.1264 -89.5428 213° Southwest 347 399 40,000  Level Memphis Center
06:24PM 32.0453 -89.6050 213° Southwest 347 399 40,000  Level Memphis Center
06:25PM 31.9486 -89.7031 221° Southwest 342 394 40,000  Level Houston Center
06:26PM 31.8628 -89.7933 222° Southwest 344 396 40,000  Level Houston Center
06:27PM 31.7894 -89.8686 221° Southwest 348 400 40,000  Level Houston Center
06:29PM 31.7192 -89.9461 223° Southwest 347 399 40,000  Level Houston Center
06:30PM 31.6511 -90.0233 224° Southwest 344 396 40,000  Level Houston Center
06:31PM 31.5831 -90.1008 224° Southwest 342 394 40,000  Level Houston Center
06:32PM 31.5161 -90.1806 225° Southwest 342 394 40,000  Level Houston Center
06:33PM 31.4489 -90.2592 225° Southwest 342 394 40,000 -420 Level Houston Center
06:34PM 31.3692 -90.3519 225° Southwest 339 390 39,200 -1,080 Descending Houston Center
06:35PM 31.2997 -90.4319 225° Southwest 347 399 37,900 -1,500 Descending Houston Center
06:36PM 31.2183 -90.5003 216° Southwest 360 414 36,200 -1,740 Descending Houston Center
06:37PM 31.1283 -90.5558 208° Southwest 364 419 34,400 -1,440 Descending Houston Center
06:38PM 31.0344 -90.6042 204° Southwest 368 423 33,300 -1,260 Descending Houston Center
06:39PM 30.9422 -90.6486 202° Southwest 364 419 31,900 -1,560 Descending Houston Center
06:40PM 30.8472 -90.6908 201° Southwest 364 419 30,200 -1,920 Descending Houston Center
06:41PM 30.7300 -90.7392 200° South 372 428 28,000 -2,040 Descending Houston Center
06:42PM 30.6297 -90.7814 200° South 380 437 26,100 -1,860 Descending Houston Center
06:43PM 30.5411 -90.8356 208° Southwest 364 419 24,200 -2,400 Descending Houston Center
06:44PM 30.4514 -90.8900 208° Southwest 363 418 21,200 -3,240 Descending Houston Center
06:45PM 30.3775 -90.9364 208° Southwest 361 415 18,300 -3,360 Descending Houston Center
06:46PM 30.2867 -90.9900 207° Southwest 342 394 15,100 -3,000 Descending Houston Center
06:47PM 30.2169 -91.0333 208° Southwest 279 321 12,300 -2,820 Descending Houston Center
06:48PM 30.1325 -91.0833 207° Southwest 268 308 8,700 -2,940 Descending Houston Center
06:49PM 30.0850 -91.1144 210° Southwest 264 304 6,400 -3,000 Descending Houston Center
06:49PM 30.0678 -91.1231 203° Southwest 264 304 5,700 -2,460 Descending Houston Center
06:50PM 30.0172 -91.1550 209° Southwest 259 298 3,900 -2,040 Descending Houston Center
06:50PM 30.0056 -91.1603 201° Southwest 259 298 3,600 -900 Descending Houston Center
06:51PM 29.9636 -91.1878 210° Southwest 223 257 3,000 -720 Descending Houston Center
06:51PM 29.9514 -91.1950 207° Southwest 242 278 2,900  Descending Houston Center
06:52PM 29.9078 -91.2208 207° Southwest 215 247 3,000  Climbing Houston Center
06:52PM 29.9003 -91.2264 213° Southwest 226 260 2,900 -420 Descending Houston Center
06:53PM 29.8544 -91.2536 207° Southwest 219 252 2,600 -720 Descending Houston Center
06:53PM 29.8436 -91.2589 203° Southwest 221 254 2,200 -600 Descending Houston Center
06:54PM 29.8117 -91.3028 230° Southwest 199 229 2,000 -240 Descending Houston Center
06:54PM 29.7853 -91.3072 188° South 221 254 2,000 -420 Level Houston Center
06:55PM 29.7814 -91.3514 264° West 187 215 1,600 -240 Descending Houston Center
06:56PM 29.7539 -91.3428 165° South 163 188 1,600 -360 Level Houston Center
06:57PM 29.7469 -91.3047 102° East 128 147 900 -420 Descending Houston Center
06:58PM 29.7258 -91.3006 170° South 125 144 800 -120 Descending Houston Center